KPVW

Hale County Airport

Plainview, Texas, USA
METAR KPVW 250455Z AUTO 18007KT 10SM CLR 22/13 A3004 RMK AO2 T02210127
Observed Flight Rules
May-25 @ 04:55 UTC (27 minutes ago) Visual Flight Rules
Wind Visibility Clouds
180° at 7 knots 10 miles
  • Clear skies
Temperatures Readings
Current 22°C / 72°F
Dewpoint 13°C / 55°F
Humidity 57%
Altimeter 30.04" Hg
Pressure 1017 hPa
Elevation 1028
METAR KPVW 250455Z AUTO 18007KT 10SM CLR 22/13 A3004 RMK AO2 T02210127
Observed Flight Rules
May-25 @ 04:55 UTC
(27 minutes ago)
VFR
Wind Visibility
180° at 7 knots 10 miles
Clouds
  • Clear skies
Temperature Dewpoint
22°C / 72°F 13°C / 55°F
Humidity Altimeter Pressure
57% 30.04" Hg 1017 hPa